Avant, Oklahoma
Current Conditions -  °F | °C
As of 5:53 AM on Monday 20 Oct 2014 (Local Time) from KBVO Reporting Station
Light Rain Light Rain  
Wind Chill: 14°   Ceiling: 4700
Heat Index: 14°   Visibility: 7mi
Dew Point: 13°   Wind: 5mph
Humidity: 93%   Direction: 150°SSE
Pressure: 30.04"   Gusts: NA
Location:  36.49°N, 96.06°W
Report Text: KBVO 201053Z AUTO 15004KT 7SM -RA BKN047 BKN060 OVC080 14/13 A3004 RMK AO2 RAB32E42B53 SLP166 P0001 T01390128
Loading
Personal Weather Stations






























Interactive Weather Map
Tropical Storm Tracking
New forecast layout! Learn more

10-Day Weather Forecast

Advertisements
Track Severe Weather on mobile